Air Navigation Services of Czech Republic  
Last data update:  18.07.2019 17:28:27 UTC Česká verze
   METEO Page displayed:  18.07.2019 17:29:32 UTC  
help
METAR EDDB 181720Z VRB02KT CAVOK 26/08 Q1011 NOSIG=
METAR EDDC 181720Z 12003KT 060V170 CAVOK 25/08 Q1011 NOSIG=
METAR EDDE 181720Z 28005KT CAVOK 24/08 Q1012 NOSIG=
METAR EDDF 181720Z 28010KT CAVOK 26/10 Q1012 NOSIG=
METAR EDDM 181720Z 31004KT 270V010 CAVOK 26/10 Q1013 NOSIG=
METAR EDDN 181720Z 26008KT CAVOK 26/07 Q1012 BECMG 28004KT=
METAR EDDP 181720Z 27012KT CAVOK 26/07 Q1011 NOSIG=
METAR EDDT 181720Z 13003KT 040V180 CAVOK 27/08 Q1010 NOSIG=
METAR EDQM 181720Z 26005KT CAVOK 23/07 Q1013=
METAR EPBY 181700Z 29004KT 250V010 CAVOK 24/06 Q1012=
METAR EPGD 181700Z 05007KT 020V080 CAVOK 17/13 Q1014=
METAR EPKK 181700Z 15004KT CAVOK 24/08 Q1013=
METAR EPKT 181700Z 22004KT 150V260 CAVOK 24/05 Q1013=
METAR EPLL 181700Z VRB01KT CAVOK 25/04 Q1012=
METAR EPPO 181700Z 27002KT CAVOK 26/07 Q1012=
METAR EPRZ 181700Z 32006KT 290V360 CAVOK 23/07 Q1013=
METAR EPWA 181700Z 32004KT 290V010 CAVOK 23/09 Q1013 NOSIG=
METAR EPWR 181700Z 13003KT 080V160 CAVOK 25/07 Q1012=
METAR LHBP 181700Z 19006KT 150V230 CAVOK 24/17 Q1013 NOSIG=
METAR LHSM 181645Z AUTO 00000KT CAVOK 24/19 Q1012=
METAR LKBC 181730Z AUTO 06003KT 340V110 9999 BKN076 25/10 Q1013=
METAR LKCV 181700Z 26003KT 210V310 CAVOK 26/10 Q1011 NOSIG RMK BLU BLU=
METAR LKKB 181700Z 14004KT 110V190 CAVOK 25/08 Q1011 NOSIG RMK BLU BLU=
METAR LKKU NIL
METAR LKKV 181700Z 32004KT 270V350 CAVOK 24/07 Q1013 RMK REG QNH 1011=
METAR LKLN 181730Z AUTO 26004KT 200V300 CAVOK 26/06 Q1012=
METAR LKMT 181700Z 05006KT CAVOK 24/08 Q1013 NOSIG RMK REG QNH 1011=
METAR LKNA 181700Z 26012KT 9999 -SHRA SCT050TCU 18/15 Q1013 NOSIG RMK BLU BLU=
METAR LKPD 181700Z 11005KT 360V160 CAVOK 26/07 Q1011 NOSIG RMK BLU BLU=
METAR LKPJ 181700Z AUTO VRB02KT 9999 FEW092/// 26/10 Q1012=
METAR LKPR 181700Z 09004KT CAVOK 25/08 Q1012 NOSIG RMK REG QNH 1011=
METAR LKTB 181700Z 10003KT 060V120 CAVOK 25/11 Q1012 NOSIG RMK REG QNH 1011=
METAR LKVO NIL
METAR LOWI 181720Z 05008KT 010V070 9999 SCT080 FEW080TCU 23/10 Q1014 NOSIG=
METAR LOWL 181720Z AUTO 29008KT 9999 NSC 26/10 Q1012 NOSIG=
METAR LOWS 181720Z 16007KT 9999 FEW070 SCT300 23/14 Q1013 NOSIG=
METAR LOWW 181720Z VRB01KT CAVOK 25/09 Q1012 NOSIG=
METAR LZIB 181700Z 21006KT CAVOK 27/13 Q1012 NOSIG=
METAR LZKZ 181700Z VRB02KT CAVOK 22/12 Q1013=
METAR LZMC 181700Z 09004KT CAVOK 27/08 Q1013=
METAR LZPP 181700Z 32003KT CAVOK 27/10 Q1012=
METAR LZSL 181700Z 03003KT 010V070 9999 FEW050 24/11 Q1013=
METAR LZTT 181700Z 25004KT 220V280 9999 SCT050 14/13 Q1015=
METAR LZZI 181700Z 05005KT CAVOK 24/10 Q1013=